SMZO/ORG METAR and TAF weather

Enter ICAO airport designator
Station Type Date Time Source
SMZO METAR 2023/01/29 20:00 UTC NOAA

SMZO 292000Z 02010KT 9999 SCT015 SCT020 26/21 Q1011 NOSIG


Station Type Date Time Source
SMZO Decoded METAR 2023/01/29 20:00 UTC NOAA

Station name not available
Jan 29, 2023 - 03:00 PM EST / 2023.01.29 2000 UTC
Wind: from the NNE (020 degrees) at 12 MPH (10 KT):0
Visibility: greater than 7 mile(s):0
Sky conditions: partly cloudy
Temperature: 78 F (26 C)
Dew Point: 69 F (21 C)
Relative Humidity: 73%
Pressure (altimeter): 29.85 in. Hg (1011 hPa)
ob: SMZO 292000Z 02010KT 9999 SCT015 SCT020 26/21 Q1011 NOSIG
cycle: 20

Station Type Date Time Source
SMZO TAF 2023/01/29 18:09 UTC NOAA

TAF TAF SMZO 291600Z 2918/3018 03010KT 9999 SCT015 SCT020 TX29/3017Z TN23/2909Z PROB30
TEMPO 2918/2920 5000 SHRA BKN015

Example: see airport list